createdAt,value
2022-09-17T00:01:56.099Z,11.57
2022-09-17T00:07:00.414Z,10.45
2022-09-17T00:12:04.235Z,9.63
2022-09-17T00:17:08.032Z,9.70
2022-09-17T00:22:11.437Z,9.77
2022-09-17T00:27:14.874Z,10.15
2022-09-17T00:32:18.587Z,9.05
2022-09-17T00:37:23.249Z,10.05
2022-09-17T00:42:26.567Z,10.10
2022-09-17T00:47:38.991Z,10.27
2022-09-17T00:52:55.201Z,8.65
2022-09-17T00:58:01.847Z,8.80
2022-09-17T01:03:06.318Z,9.52
2022-09-17T01:08:25.237Z,8.65
2022-09-17T01:13:53.106Z,9.02
2022-09-17T01:19:05.596Z,8.90
2022-09-17T01:24:35.426Z,9.05
2022-09-17T01:29:41.731Z,9.18
2022-09-17T01:35:03.976Z,8.88
2022-09-17T01:40:42.835Z,8.73
2022-09-17T01:45:57.823Z,9.60
2022-09-17T01:51:14.958Z,8.38
2022-09-17T01:56:22.979Z,9.02
2022-09-17T02:01:30.123Z,8.77
2022-09-17T02:06:38.790Z,9.77
2022-09-17T02:11:46.324Z,9.45
2022-09-17T02:16:57.521Z,9.75
2022-09-17T02:22:33.156Z,9.63
2022-09-17T02:27:48.094Z,9.77
2022-09-17T02:32:51.671Z,9.75
2022-09-17T02:37:55.537Z,9.52
2022-09-17T02:43:10.799Z,9.65
2022-09-17T02:48:34.091Z,9.50
2022-09-17T02:53:49.303Z,9.50
2022-09-17T02:59:31.586Z,10.15
2022-09-17T03:04:37.434Z,9.25
2022-09-17T03:09:41.670Z,8.80
2022-09-17T03:14:48.137Z,9.70
2022-09-17T03:19:55.215Z,9.00
2022-09-17T03:24:58.795Z,9.02
2022-09-17T03:30:02.237Z,8.52
2022-09-17T03:35:10.646Z,9.27
2022-09-17T03:40:18.607Z,8.63
2022-09-17T03:45:22.302Z,8.93
2022-09-17T03:50:25.875Z,9.45
2022-09-17T03:55:29.632Z,9.57
2022-09-17T04:00:33.825Z,9.48
2022-09-17T04:05:37.482Z,8.55
2022-09-17T04:10:41.477Z,8.95
2022-09-17T04:15:46.263Z,8.43
2022-09-17T04:20:49.670Z,9.13
2022-09-17T04:25:53.098Z,8.27
2022-09-17T04:30:56.980Z,8.60
2022-09-17T04:36:00.495Z,8.93
2022-09-17T04:41:03.837Z,8.68
2022-09-17T04:46:07.668Z,8.45
2022-09-17T04:51:11.192Z,8.93
2022-09-17T04:56:14.502Z,7.85
2022-09-17T05:01:18.160Z,7.90
2022-09-17T05:06:22.131Z,7.47
2022-09-17T05:11:25.945Z,6.93
2022-09-17T05:16:29.613Z,6.85
2022-09-17T05:21:33.746Z,6.82
2022-09-17T05:26:37.099Z,7.00
2022-09-17T05:31:41.032Z,7.50
2022-09-17T05:36:44.725Z,7.07
2022-09-17T05:41:47.968Z,7.60
2022-09-17T05:46:53.516Z,6.50
2022-09-17T05:51:56.834Z,6.57
2022-09-17T05:57:01.151Z,6.43
2022-09-17T06:02:05.628Z,7.05
2022-09-17T06:07:09.563Z,7.65
2022-09-17T06:12:13.059Z,6.35
2022-09-17T06:17:21.999Z,6.50
2022-09-17T06:22:25.668Z,6.65
2022-09-17T06:27:33.206Z,6.38
2022-09-17T06:32:36.713Z,6.78
2022-09-17T06:37:40.158Z,7.20
2022-09-17T06:42:50.981Z,6.30
2022-09-17T06:47:54.472Z,6.32
2022-09-17T06:52:57.893Z,6.22
2022-09-17T06:58:01.279Z,6.30
2022-09-17T07:03:04.845Z,6.68
2022-09-17T07:08:08.223Z,6.18
2022-09-17T07:13:11.695Z,7.25
2022-09-17T07:18:15.268Z,6.00
2022-09-17T07:23:18.783Z,6.10
2022-09-17T07:28:22.955Z,6.65
2022-09-17T07:33:28.123Z,6.40
2022-09-17T07:38:32.547Z,6.07
2022-09-17T07:43:37.321Z,6.35
2022-09-17T07:48:40.991Z,5.55
2022-09-17T07:53:45.137Z,5.63
2022-09-17T07:58:49.358Z,5.22
2022-09-17T08:03:54.522Z,5.95
2022-09-17T08:09:01.402Z,5.10
2022-09-17T08:14:05.035Z,5.15
2022-09-17T08:19:08.768Z,4.95
2022-09-17T08:24:12.271Z,4.85
2022-09-17T08:29:16.119Z,4.82
2022-09-17T08:34:19.571Z,4.97
2022-09-17T08:39:22.804Z,5.28
2022-09-17T08:44:41.605Z,5.32
2022-09-17T08:49:51.034Z,4.90
2022-09-17T08:55:23.694Z,4.65
2022-09-17T09:00:35.668Z,4.60
2022-09-17T09:05:47.463Z,5.03
2022-09-17T09:10:57.777Z,4.43
2022-09-17T09:16:06.004Z,4.70
2022-09-17T09:21:25.738Z,4.25
2022-09-17T09:26:43.828Z,5.13
2022-09-17T09:32:02.224Z,4.20
2022-09-17T09:37:26.199Z,4.60
2022-09-17T09:42:33.289Z,4.28
2022-09-17T09:48:05.700Z,4.40
2022-09-17T09:53:15.029Z,4.45
2022-09-17T09:58:40.599Z,4.55
2022-09-17T10:03:49.029Z,4.40
2022-09-17T10:08:55.225Z,4.07
2022-09-17T10:14:26.256Z,4.07
2022-09-17T10:19:33.565Z,4.15
2022-09-17T10:24:39.443Z,3.78
2022-09-17T10:29:47.902Z,4.05
2022-09-17T10:35:25.788Z,4.15
2022-09-17T10:40:32.467Z,4.05
2022-09-17T10:45:39.580Z,3.95
2022-09-17T10:50:49.775Z,3.75
2022-09-17T10:55:56.412Z,4.03
2022-09-17T11:01:11.938Z,3.83
2022-09-17T11:06:26.904Z,3.75
2022-09-17T11:11:41.925Z,4.35
2022-09-17T11:16:52.268Z,3.42
2022-09-17T11:22:06.462Z,4.03
2022-09-17T11:27:35.906Z,4.82
2022-09-17T11:32:55.375Z,4.28
2022-09-17T11:38:13.862Z,3.92
2022-09-17T11:43:36.263Z,4.30
2022-09-17T11:48:56.060Z,3.28
2022-09-17T11:54:08.812Z,4.43
2022-09-17T11:59:39.167Z,3.72
2022-09-17T12:04:49.955Z,3.38
2022-09-17T12:10:14.694Z,3.55
2022-09-17T12:15:25.322Z,3.85
2022-09-17T12:20:36.886Z,4.13
2022-09-17T12:26:00.473Z,3.53
2022-09-17T12:31:14.799Z,4.88
2022-09-17T12:36:45.267Z,4.07
2022-09-17T12:42:11.602Z,3.70
2022-09-17T12:47:34.806Z,4.47
2022-09-17T12:52:58.517Z,3.53
2022-09-17T12:58:26.630Z,3.60
2022-09-17T13:03:37.708Z,4.15
2022-09-17T13:08:45.470Z,4.40
2022-09-17T13:13:55.604Z,4.10
2022-09-17T13:19:22.223Z,4.10
2022-09-17T13:24:29.415Z,4.45
2022-09-17T13:29:44.983Z,3.78
2022-09-17T13:39:57.305Z,4.45
2022-09-17T13:45:03.493Z,4.50
2022-09-17T13:50:24.560Z,4.20
2022-09-17T13:55:35.746Z,4.13
2022-09-17T14:01:02.242Z,4.75
2022-09-17T14:06:06.685Z,5.47
2022-09-17T14:11:30.434Z,5.38
2022-09-17T14:16:57.030Z,4.72
2022-09-17T14:22:12.691Z,4.60
2022-09-17T14:27:38.651Z,5.03
2022-09-17T14:32:46.135Z,4.22
2022-09-17T14:37:56.278Z,4.72
2022-09-17T14:43:03.358Z,4.57
2022-09-17T14:48:24.931Z,5.13
2022-09-17T14:53:28.196Z,5.35
2022-09-17T14:58:35.316Z,5.88
2022-09-17T15:03:38.765Z,5.13
2022-09-17T15:08:45.887Z,4.90
2022-09-17T15:13:53.351Z,5.10
2022-09-17T15:18:59.965Z,5.03
2022-09-17T15:24:28.961Z,4.72
2022-09-17T15:29:34.715Z,5.07
2022-09-17T15:34:38.113Z,5.68
2022-09-17T15:39:43.235Z,5.60
2022-09-17T15:44:47.209Z,5.20
2022-09-17T15:50:14.407Z,5.78
2022-09-17T15:55:28.167Z,5.05
2022-09-17T16:00:31.737Z,5.63
2022-09-17T16:05:47.360Z,5.13
2022-09-17T16:10:50.798Z,5.43
2022-09-17T16:15:54.772Z,5.82
2022-09-17T16:20:58.847Z,6.13
2022-09-17T16:26:02.502Z,5.82
2022-09-17T16:31:06.849Z,5.95
2022-09-17T16:36:11.642Z,5.32
2022-09-17T16:41:15.164Z,6.85
2022-09-17T16:46:18.722Z,5.90
2022-09-17T16:51:22.081Z,5.50
2022-09-17T16:56:25.325Z,6.55
2022-09-17T17:01:29.177Z,6.47
2022-09-17T17:06:32.719Z,6.47
2022-09-17T17:11:36.153Z,5.95
2022-09-17T17:16:40.215Z,6.32
2022-09-17T17:21:47.282Z,6.78
2022-09-17T17:26:50.686Z,6.38
2022-09-17T17:31:54.203Z,6.32
2022-09-17T17:36:59.453Z,6.18
2022-09-17T17:42:03.089Z,7.47
2022-09-17T17:47:06.719Z,6.90
2022-09-17T17:52:10.521Z,7.05
2022-09-17T17:57:14.156Z,7.45
2022-09-17T18:02:17.781Z,6.55
2022-09-17T18:07:21.293Z,6.13
2022-09-17T18:12:26.927Z,7.40
2022-09-17T18:17:31.094Z,6.75
2022-09-17T18:22:34.341Z,6.38
2022-09-17T18:27:40.404Z,6.65
2022-09-17T18:32:44.296Z,6.90
2022-09-17T18:37:48.065Z,7.03
2022-09-17T18:42:52.404Z,6.72
2022-09-17T18:47:55.868Z,6.80
2022-09-17T18:52:59.200Z,7.45
2022-09-17T18:58:02.677Z,7.43
2022-09-17T19:03:06.530Z,7.80
2022-09-17T19:08:13.779Z,6.25
2022-09-17T19:13:20.764Z,7.15
2022-09-17T19:18:24.101Z,7.22
2022-09-17T19:23:27.505Z,8.40
2022-09-17T19:28:30.620Z,8.15
2022-09-17T19:33:33.983Z,8.27
2022-09-17T19:38:37.639Z,7.50
2022-09-17T19:43:44.688Z,8.20
2022-09-17T19:48:53.385Z,8.40
2022-09-17T19:53:57.052Z,8.48
2022-09-17T19:59:00.300Z,7.53
2022-09-17T20:04:03.780Z,7.63
2022-09-17T20:09:12.290Z,7.60
2022-09-17T20:14:16.178Z,8.65
2022-09-17T20:19:19.700Z,8.68
2022-09-17T20:24:23.079Z,8.07
2022-09-17T20:29:27.873Z,7.93
2022-09-17T20:34:34.588Z,8.20
2022-09-17T20:39:38.006Z,7.40
2022-09-17T20:44:41.532Z,8.20
2022-09-17T20:49:44.901Z,8.77
2022-09-17T20:54:48.937Z,7.88
2022-09-17T20:59:52.505Z,7.53
2022-09-17T21:04:56.154Z,7.28
2022-09-17T21:09:59.944Z,7.53
2022-09-17T21:15:03.363Z,7.95
2022-09-17T21:20:07.595Z,8.80
2022-09-17T21:25:10.975Z,8.45
2022-09-17T21:30:14.996Z,7.07
2022-09-17T21:35:18.422Z,6.90
2022-09-17T21:40:22.396Z,8.18
2022-09-17T21:45:25.872Z,7.60
2022-09-17T21:50:29.311Z,8.02
2022-09-17T21:55:32.798Z,8.40
2022-09-17T22:00:39.746Z,8.82
2022-09-17T22:05:46.817Z,7.93
2022-09-17T22:10:50.681Z,8.75
2022-09-17T22:15:59.404Z,9.00
2022-09-17T22:21:36.348Z,9.13
2022-09-17T22:26:42.340Z,9.52
2022-09-17T22:31:47.097Z,9.25
2022-09-17T22:36:50.953Z,8.75
2022-09-17T22:41:54.898Z,8.63
2022-09-17T22:46:58.526Z,9.60
2022-09-17T22:52:02.128Z,9.65
2022-09-17T22:57:05.808Z,8.70
2022-09-17T23:02:09.745Z,9.30
2022-09-17T23:07:13.300Z,9.35
2022-09-17T23:12:17.293Z,8.93
2022-09-17T23:17:20.862Z,9.40
2022-09-17T23:22:24.458Z,9.95
2022-09-17T23:27:28.371Z,9.05
2022-09-17T23:32:31.610Z,8.68
2022-09-17T23:37:34.920Z,8.30
2022-09-17T23:42:38.131Z,8.80
2022-09-17T23:47:41.502Z,8.98
2022-09-17T23:52:45.197Z,9.23
2022-09-17T23:57:48.634Z,9.32
